createdAt,value
2022-10-18T00:00:48.482Z,11.88
2022-10-18T00:03:15.404Z,13.35
2022-10-18T00:05:42.245Z,12.75
2022-10-18T00:08:09.260Z,12.82
2022-10-18T00:10:36.212Z,11.93
2022-10-18T00:13:03.245Z,11.38
2022-10-18T00:15:30.101Z,12.20
2022-10-18T00:17:57.122Z,11.77
2022-10-18T00:20:24.080Z,12.15
2022-10-18T00:22:51.155Z,12.10
2022-10-18T00:25:18.560Z,13.25
2022-10-18T00:27:45.516Z,13.60
2022-10-18T00:30:13.707Z,13.20
2022-10-18T00:32:42.256Z,13.02
2022-10-18T00:35:09.551Z,13.38
2022-10-18T00:37:36.588Z,13.52
2022-10-18T00:40:04.658Z,13.32
2022-10-18T00:42:34.523Z,12.48
2022-10-18T00:45:06.982Z,13.25
2022-10-18T00:47:35.859Z,13.52
2022-10-18T00:50:05.878Z,12.90
2022-10-18T00:52:54.221Z,14.07
2022-10-18T00:55:21.670Z,12.52
2022-10-18T00:57:50.068Z,11.98
2022-10-18T01:00:18.249Z,11.95
2022-10-18T01:02:47.111Z,11.63
2022-10-18T01:05:16.940Z,11.55
2022-10-18T01:07:56.591Z,11.77
2022-10-18T01:10:45.658Z,11.88
2022-10-18T01:13:24.858Z,11.10
2022-10-18T01:16:11.544Z,11.50
2022-10-18T01:19:02.069Z,11.13
2022-10-18T01:21:42.916Z,11.88
2022-10-18T01:24:12.657Z,10.73
2022-10-18T01:27:17.194Z,10.63
2022-10-18T01:29:59.092Z,10.95
2022-10-18T01:32:37.035Z,10.15
2022-10-18T01:35:11.240Z,10.23
2022-10-18T01:37:41.089Z,11.48
2022-10-18T01:40:09.245Z,11.68
2022-10-18T01:42:36.132Z,10.75
2022-10-18T01:45:04.419Z,11.27
2022-10-18T01:47:32.319Z,10.90
2022-10-18T01:50:01.228Z,9.07
2022-10-18T01:52:28.495Z,11.25
2022-10-18T01:54:56.587Z,12.02
2022-10-18T01:57:38.356Z,10.77
2022-10-18T02:00:25.065Z,11.93
2022-10-18T02:03:03.164Z,10.77
2022-10-18T02:05:56.252Z,12.52
2022-10-18T02:08:30.852Z,12.18
2022-10-18T02:10:57.735Z,11.57
2022-10-18T02:13:30.132Z,11.90
2022-10-18T02:16:03.470Z,12.75
2022-10-18T02:18:36.849Z,12.40
2022-10-18T02:21:08.179Z,11.90
2022-10-18T02:23:36.245Z,14.68
2022-10-18T02:26:03.314Z,13.90
2022-10-18T02:28:30.522Z,13.18
2022-10-18T02:31:00.178Z,14.95
2022-10-18T02:33:45.515Z,18.48
2022-10-18T02:36:48.386Z,17.92
2022-10-18T02:39:20.780Z,17.60
2022-10-18T02:41:47.888Z,14.40
2022-10-18T02:44:15.237Z,16.13
2022-10-18T02:46:42.587Z,15.63
2022-10-18T02:49:09.478Z,16.27
2022-10-18T02:51:36.435Z,15.57
2022-10-18T02:54:03.727Z,14.65
2022-10-18T02:56:30.796Z,13.18
2022-10-18T02:58:57.828Z,12.38
2022-10-18T03:01:24.908Z,12.63
2022-10-18T03:03:52.049Z,11.13
2022-10-18T03:06:19.059Z,11.50
2022-10-18T03:08:46.050Z,11.35
2022-10-18T03:11:13.219Z,11.95
2022-10-18T03:13:40.110Z,11.98
2022-10-18T03:16:07.118Z,10.48
2022-10-18T03:18:33.992Z,11.32
2022-10-18T03:21:07.974Z,11.68
2022-10-18T03:23:35.474Z,10.98
2022-10-18T03:26:02.824Z,12.43
2022-10-18T03:28:30.116Z,11.68
2022-10-18T03:31:02.156Z,10.80
2022-10-18T03:33:30.422Z,11.82
2022-10-18T03:35:57.533Z,13.35
2022-10-18T03:38:24.424Z,12.05
2022-10-18T03:40:51.381Z,12.50
2022-10-18T03:43:18.336Z,11.25
2022-10-18T03:45:45.706Z,13.68
2022-10-18T03:48:12.837Z,13.32
2022-10-18T03:50:39.715Z,13.88
2022-10-18T03:53:06.663Z,14.57
2022-10-18T03:55:33.551Z,13.82
2022-10-18T03:58:00.694Z,14.50
2022-10-18T04:00:27.647Z,18.17
2022-10-18T04:02:55.973Z,16.20
2022-10-18T04:05:28.266Z,15.27
2022-10-18T04:07:55.268Z,14.32
2022-10-18T04:10:24.789Z,16.02
2022-10-18T04:12:51.736Z,14.77
2022-10-18T04:15:18.803Z,12.68
2022-10-18T04:17:45.790Z,12.63
2022-10-18T04:20:13.794Z,13.40
2022-10-18T04:22:40.945Z,13.50
2022-10-18T04:25:08.049Z,14.13
2022-10-18T04:27:35.449Z,14.27
2022-10-18T04:30:02.553Z,14.57
2022-10-18T04:32:29.465Z,15.13
2022-10-18T04:34:56.374Z,16.50
2022-10-18T04:37:23.270Z,15.90
2022-10-18T04:39:53.450Z,16.20
2022-10-18T04:42:21.773Z,16.80
2022-10-18T04:44:48.887Z,15.93
2022-10-18T04:47:16.358Z,16.27
2022-10-18T04:49:43.360Z,16.45
2022-10-18T04:52:10.743Z,15.98
2022-10-18T04:54:37.746Z,16.55
2022-10-18T04:57:04.708Z,17.33
2022-10-18T04:59:31.583Z,16.23
2022-10-18T05:01:58.536Z,16.40
2022-10-18T05:04:25.703Z,16.42
2022-10-18T05:06:52.561Z,17.58
2022-10-18T05:09:19.558Z,20.65
2022-10-18T05:11:46.410Z,22.92
2022-10-18T05:14:13.435Z,26.08
2022-10-18T05:16:40.321Z,18.25
2022-10-18T05:19:07.203Z,21.40
2022-10-18T05:21:34.224Z,15.98
2022-10-18T05:24:01.336Z,16.08
2022-10-18T05:26:28.333Z,15.10
2022-10-18T05:28:55.287Z,15.68
2022-10-18T05:31:22.220Z,15.40
2022-10-18T05:33:49.168Z,16.23
2022-10-18T05:36:16.239Z,15.15
2022-10-18T05:38:44.083Z,15.70
2022-10-18T05:41:12.020Z,14.95
2022-10-18T05:43:39.706Z,15.05
2022-10-18T05:46:13.646Z,15.25
2022-10-18T05:48:43.403Z,14.48
2022-10-18T05:51:10.524Z,14.07
2022-10-18T05:53:38.236Z,14.48
2022-10-18T05:56:07.125Z,15.30
2022-10-18T05:58:34.519Z,12.73
2022-10-18T06:01:02.379Z,13.98
2022-10-18T06:03:30.825Z,13.52
2022-10-18T06:06:07.020Z,13.82
2022-10-18T06:08:34.257Z,13.52
2022-10-18T06:11:09.582Z,14.10
2022-10-18T06:13:41.225Z,29.60
2022-10-18T06:16:08.615Z,16.42
2022-10-18T06:18:35.526Z,13.90
2022-10-18T06:21:02.579Z,14.60
2022-10-18T06:23:37.090Z,15.65
2022-10-18T06:26:11.505Z,15.45
2022-10-18T06:28:39.260Z,14.35
2022-10-18T06:31:06.754Z,13.95
2022-10-18T06:33:35.629Z,14.10
2022-10-18T06:36:05.758Z,15.27
2022-10-18T06:38:33.433Z,14.43
2022-10-18T06:41:00.764Z,16.70
2022-10-18T06:43:27.971Z,20.50
2022-10-18T06:45:55.246Z,17.63
2022-10-18T06:48:23.116Z,15.20
2022-10-18T06:50:58.396Z,17.05
2022-10-18T06:53:27.082Z,15.68
2022-10-18T06:56:00.633Z,14.77
2022-10-18T06:58:28.312Z,15.60
2022-10-18T07:00:55.308Z,14.52
2022-10-18T07:03:22.270Z,13.93
2022-10-18T07:05:52.285Z,13.00
2022-10-18T07:08:19.176Z,13.73
2022-10-18T07:10:53.216Z,14.25
2022-10-18T07:13:32.137Z,13.65
2022-10-18T07:16:12.877Z,13.35
2022-10-18T07:18:45.633Z,13.18
2022-10-18T07:21:15.396Z,14.10
2022-10-18T07:23:43.881Z,13.98
2022-10-18T07:26:27.149Z,14.38
2022-10-18T07:28:58.002Z,12.38
2022-10-18T07:31:26.084Z,15.32
2022-10-18T07:33:53.300Z,15.13
2022-10-18T07:36:22.144Z,15.30
2022-10-18T07:38:50.056Z,14.95
2022-10-18T07:41:17.032Z,15.82
2022-10-18T07:43:46.750Z,15.25
2022-10-18T07:46:15.107Z,14.65
2022-10-18T07:48:42.255Z,15.25
2022-10-18T07:51:09.741Z,19.85
2022-10-18T07:53:37.297Z,17.92
2022-10-18T07:56:09.489Z,17.63
2022-10-18T07:58:36.890Z,18.58
2022-10-18T08:01:07.743Z,21.60
2022-10-18T08:03:35.713Z,17.85
2022-10-18T08:06:03.676Z,17.42
2022-10-18T08:08:31.720Z,18.15
2022-10-18T08:11:25.524Z,17.30
2022-10-18T08:13:53.774Z,20.60
2022-10-18T08:16:27.012Z,22.27
2022-10-18T08:18:54.332Z,21.55
2022-10-18T08:21:21.843Z,17.98
2022-10-18T08:23:49.817Z,19.63
2022-10-18T08:26:19.706Z,19.55
2022-10-18T08:28:53.935Z,20.10
2022-10-18T08:31:30.990Z,22.05
2022-10-18T08:33:57.991Z,24.15
2022-10-18T08:36:25.074Z,24.85
2022-10-18T08:38:52.269Z,26.33
2022-10-18T08:41:30.268Z,26.10
2022-10-18T08:44:12.339Z,26.42
2022-10-18T08:46:44.329Z,23.42
2022-10-18T08:49:31.417Z,27.90
2022-10-18T08:51:58.823Z,26.70
2022-10-18T08:54:38.564Z,26.58
2022-10-18T08:57:14.965Z,27.60
2022-10-18T08:59:42.364Z,24.52
2022-10-18T09:02:38.951Z,27.23
2022-10-18T09:05:32.367Z,30.67
2022-10-18T09:08:26.989Z,29.55
2022-10-18T09:11:06.646Z,29.83
2022-10-18T09:13:57.239Z,30.58
2022-10-18T09:16:27.377Z,32.42
2022-10-18T09:18:57.422Z,30.63
2022-10-18T09:21:30.416Z,31.50
2022-10-18T09:24:22.864Z,31.35
2022-10-18T09:26:57.134Z,33.15
2022-10-18T09:29:42.875Z,32.13
2022-10-18T09:32:12.837Z,29.88
2022-10-18T09:34:51.756Z,29.05
2022-10-18T09:37:20.945Z,29.00
2022-10-18T09:39:50.467Z,29.33
2022-10-18T09:42:30.181Z,27.95
2022-10-18T09:45:04.280Z,31.48
2022-10-18T09:47:53.747Z,32.80
2022-10-18T09:50:38.275Z,29.08
2022-10-18T09:53:20.324Z,26.20
2022-10-18T09:56:03.988Z,26.13
2022-10-18T09:58:49.501Z,26.08
2022-10-18T10:01:21.119Z,26.77
2022-10-18T10:03:48.040Z,26.15
2022-10-18T10:06:27.351Z,25.30
2022-10-18T10:08:55.849Z,23.33
2022-10-18T10:11:40.153Z,22.17
2022-10-18T10:14:25.947Z,22.77
2022-10-18T10:17:03.303Z,23.70
2022-10-18T10:19:41.200Z,22.00
2022-10-18T10:22:13.242Z,21.00
2022-10-18T10:24:53.632Z,21.90
2022-10-18T10:27:44.092Z,21.13
2022-10-18T10:30:26.276Z,19.70
2022-10-18T10:32:54.672Z,21.35
2022-10-18T10:38:26.791Z,23.20
2022-10-18T10:40:54.461Z,24.30
2022-10-18T10:43:37.553Z,23.45
2022-10-18T10:46:11.402Z,22.55
2022-10-18T10:48:48.555Z,24.40
2022-10-18T10:51:38.588Z,23.55
2022-10-18T10:54:17.001Z,23.83
2022-10-18T10:57:01.419Z,23.42
2022-10-18T10:59:32.402Z,21.70
2022-10-18T11:02:21.738Z,24.45
2022-10-18T11:04:54.226Z,21.45
2022-10-18T11:07:39.534Z,22.38
2022-10-18T11:10:11.314Z,21.95
2022-10-18T11:12:45.789Z,20.40
2022-10-18T11:15:15.855Z,23.02
2022-10-18T11:18:16.980Z,24.25
2022-10-18T11:20:56.277Z,23.27
2022-10-18T11:23:30.002Z,23.70
2022-10-18T11:26:11.941Z,22.48
2022-10-18T11:28:57.639Z,23.05
2022-10-18T11:31:40.021Z,22.08
2022-10-18T11:34:29.845Z,22.60
2022-10-18T11:37:38.599Z,20.92
2022-10-18T11:40:30.119Z,18.33
2022-10-18T11:43:30.113Z,21.35
2022-10-18T11:46:08.252Z,22.05
2022-10-18T11:48:37.937Z,18.58
2022-10-18T11:51:55.949Z,17.20
2022-10-18T11:54:33.820Z,16.00
2022-10-18T11:57:16.757Z,17.65
2022-10-18T12:00:00.496Z,18.23
2022-10-18T12:02:44.007Z,17.65
2022-10-18T12:05:23.025Z,15.98
2022-10-18T12:08:02.632Z,18.25
2022-10-18T12:10:52.770Z,18.42
2022-10-18T12:13:40.403Z,17.48
2022-10-18T12:16:09.290Z,15.88
2022-10-18T12:18:43.396Z,14.15
2022-10-18T12:21:13.180Z,15.15
2022-10-18T12:23:58.151Z,14.93
2022-10-18T12:26:28.336Z,13.27
2022-10-18T12:29:07.376Z,12.00
2022-10-18T12:31:46.347Z,10.55
2022-10-18T12:34:22.653Z,9.80
2022-10-18T12:37:18.008Z,10.27
2022-10-18T12:40:10.251Z,9.75
2022-10-18T12:42:51.238Z,10.63
2022-10-18T12:45:24.134Z,8.70
2022-10-18T12:47:51.754Z,7.03
2022-10-18T12:50:38.467Z,9.00
2022-10-18T12:53:26.666Z,8.52
2022-10-18T12:55:54.673Z,9.07
2022-10-18T12:58:23.669Z,8.20
2022-10-18T13:00:50.550Z,9.93
2022-10-18T13:03:17.932Z,9.68
2022-10-18T13:05:53.415Z,8.90
2022-10-18T13:08:30.422Z,10.30
2022-10-18T13:11:09.576Z,9.38
2022-10-18T13:14:05.869Z,8.23
2022-10-18T13:16:36.479Z,8.43
2022-10-18T13:19:35.652Z,7.53
2022-10-18T13:22:29.936Z,8.93
2022-10-18T13:25:21.402Z,9.00
2022-10-18T13:27:59.608Z,9.70
2022-10-18T13:30:44.971Z,9.65
2022-10-18T13:33:14.570Z,8.98
2022-10-18T13:35:52.714Z,7.85
2022-10-18T13:38:34.660Z,8.13
2022-10-18T13:43:57.185Z,8.77
2022-10-18T13:46:45.346Z,7.13
2022-10-18T13:49:27.561Z,6.75
2022-10-18T13:52:06.419Z,7.70
2022-10-18T13:54:48.174Z,6.35
2022-10-18T13:57:42.891Z,6.47
2022-10-18T14:00:37.047Z,5.75
2022-10-18T14:03:56.155Z,5.88
2022-10-18T14:06:25.730Z,4.95
2022-10-18T14:09:19.350Z,4.60
2022-10-18T14:11:55.281Z,4.80
2022-10-18T14:14:29.910Z,3.85
2022-10-18T14:17:29.693Z,4.07
2022-10-18T14:20:15.478Z,4.45
2022-10-18T14:23:06.712Z,3.78
2022-10-18T14:25:36.366Z,4.07
2022-10-18T14:28:17.087Z,4.03
2022-10-18T14:31:02.973Z,3.40
2022-10-18T14:33:57.298Z,3.83
2022-10-18T14:36:29.381Z,3.15
2022-10-18T14:39:02.494Z,3.13
2022-10-18T14:41:34.860Z,3.45
2022-10-18T14:44:21.768Z,3.58
2022-10-18T14:46:58.835Z,3.35
2022-10-18T14:49:26.612Z,4.20
2022-10-18T14:51:56.513Z,3.60
2022-10-18T14:54:36.356Z,3.85
2022-10-18T14:57:05.656Z,3.97
2022-10-18T14:59:51.885Z,4.28
2022-10-18T15:02:25.249Z,3.10
2022-10-18T15:05:23.409Z,2.78
2022-10-18T15:07:52.254Z,3.83
2022-10-18T15:10:30.830Z,4.13
2022-10-18T15:13:09.818Z,3.47
2022-10-18T15:15:38.391Z,2.80
2022-10-18T15:18:06.804Z,3.58
2022-10-18T15:20:39.492Z,3.05
2022-10-18T15:23:26.991Z,3.10
2022-10-18T15:26:03.126Z,2.80
2022-10-18T15:28:36.072Z,3.22
2022-10-18T15:31:04.683Z,3.10
2022-10-18T15:33:34.687Z,3.25
2022-10-18T15:36:20.646Z,3.03
2022-10-18T15:38:50.011Z,2.83
2022-10-18T15:41:38.463Z,15.27
2022-10-18T15:44:27.066Z,27.17
2022-10-18T15:47:13.320Z,15.95
2022-10-18T15:49:46.340Z,26.10
2022-10-18T15:52:36.682Z,28.30
2022-10-18T15:55:30.785Z,25.95
2022-10-18T15:58:24.124Z,25.90
2022-10-18T16:00:52.504Z,72.45
2022-10-18T16:03:22.471Z,33.13
2022-10-18T16:05:51.533Z,56.70
2022-10-18T16:08:21.699Z,36.50
2022-10-18T16:10:48.736Z,43.45
2022-10-18T16:13:15.869Z,51.88
2022-10-18T16:15:42.919Z,7.05
2022-10-18T16:18:14.898Z,15.88
2022-10-18T16:20:42.262Z,15.15
2022-10-18T16:23:21.814Z,21.13
2022-10-18T16:25:49.077Z,10.57
2022-10-18T16:28:19.056Z,17.73
2022-10-18T16:30:52.968Z,36.55
2022-10-18T16:33:21.604Z,6.00
2022-10-18T16:35:49.092Z,34.42
2022-10-18T16:38:34.024Z,4.68
2022-10-18T16:41:07.001Z,17.33
2022-10-18T16:43:35.370Z,8.93
2022-10-18T16:46:03.234Z,16.70
2022-10-18T16:48:30.686Z,10.77
2022-10-18T16:50:57.971Z,5.15
2022-10-18T16:53:26.303Z,4.45
2022-10-18T16:55:56.076Z,11.40
2022-10-18T17:00:51.527Z,23.75
2022-10-18T17:03:18.979Z,5.97
2022-10-18T17:05:46.285Z,5.80
2022-10-18T17:08:18.998Z,5.10
2022-10-18T17:10:47.139Z,4.88
2022-10-18T17:13:14.240Z,8.15
2022-10-18T17:15:44.967Z,13.32
2022-10-18T17:18:19.560Z,7.68
2022-10-18T17:20:46.743Z,7.68
2022-10-18T17:23:16.397Z,10.27
2022-10-18T17:25:57.462Z,15.93
2022-10-18T17:28:31.725Z,13.68
2022-10-18T17:30:58.639Z,5.68
2022-10-18T17:40:11.396Z,10.18
2022-10-18T17:42:38.518Z,9.38
2022-10-18T17:45:06.130Z,7.07
2022-10-18T17:47:33.334Z,7.60
2022-10-18T17:50:00.430Z,9.30
2022-10-18T17:52:27.425Z,17.20
2022-10-18T17:54:54.398Z,20.15
2022-10-18T17:57:24.050Z,17.45
2022-10-18T17:59:54.571Z,14.93
2022-10-18T18:02:21.572Z,6.40
2022-10-18T18:04:48.505Z,6.00
2022-10-18T18:07:15.797Z,8.07
2022-10-18T18:09:42.643Z,6.15
2022-10-18T18:12:09.639Z,9.90
2022-10-18T18:14:36.660Z,10.80
2022-10-18T18:17:03.794Z,9.50
2022-10-18T18:19:31.451Z,13.77
2022-10-18T18:22:04.463Z,10.97
2022-10-18T18:24:31.900Z,13.77
2022-10-18T18:26:59.331Z,10.17
2022-10-18T18:29:27.210Z,10.93
2022-10-18T18:31:54.182Z,7.30
2022-10-18T18:34:22.256Z,6.70
2022-10-18T18:36:49.383Z,5.23
2022-10-18T18:39:22.871Z,6.37
2022-10-18T18:41:51.323Z,7.90
2022-10-18T18:44:20.529Z,7.10
2022-10-18T18:46:47.933Z,7.70
2022-10-18T18:49:15.142Z,8.83
2022-10-18T18:51:42.432Z,8.97
2022-10-18T18:54:11.235Z,12.57
2022-10-18T18:56:38.531Z,17.80
2022-10-18T18:59:06.909Z,10.37
2022-10-18T19:01:36.180Z,12.93
2022-10-18T19:04:04.974Z,18.83
2022-10-18T19:06:39.108Z,17.87
2022-10-18T19:09:12.206Z,24.73
2022-10-18T19:11:39.957Z,20.13
2022-10-18T19:14:08.308Z,13.50
2022-10-18T19:16:37.755Z,19.97
2022-10-18T19:19:07.695Z,15.90
2022-10-18T19:21:37.676Z,19.40
2022-10-18T19:24:05.775Z,16.13
2022-10-18T19:26:45.632Z,16.15
2022-10-18T19:29:15.831Z,8.53
2022-10-18T19:31:43.449Z,16.13
2022-10-18T19:34:16.230Z,16.30
2022-10-18T19:36:45.147Z,10.27
2022-10-18T19:39:20.907Z,9.07
2022-10-18T19:41:49.728Z,7.63
2022-10-18T19:44:18.292Z,10.23
2022-10-18T19:46:45.314Z,6.13
2022-10-18T19:49:12.754Z,7.07
2022-10-18T19:51:40.400Z,7.20
2022-10-18T19:54:07.997Z,7.67
2022-10-18T19:56:35.019Z,8.03
2022-10-18T19:59:02.384Z,7.60
2022-10-18T20:01:30.395Z,6.33
2022-10-18T20:03:57.530Z,6.43
2022-10-18T20:06:24.755Z,8.83
2022-10-18T20:08:52.143Z,8.00
2022-10-18T20:11:22.523Z,9.63
2022-10-18T20:13:49.870Z,12.77
2022-10-18T20:16:19.035Z,13.30
2022-10-18T20:18:46.092Z,11.07
2022-10-18T20:21:15.924Z,8.40
2022-10-18T20:23:44.469Z,9.33
2022-10-18T20:26:20.425Z,8.57
2022-10-18T20:28:59.619Z,9.67
2022-10-18T20:31:32.098Z,9.17
2022-10-18T20:34:02.005Z,9.43
2022-10-18T20:36:31.457Z,7.43
2022-10-18T20:38:59.398Z,6.43
2022-10-18T20:41:29.041Z,6.53
2022-10-18T20:43:59.114Z,5.83
2022-10-18T20:46:27.643Z,6.10
2022-10-18T20:48:55.009Z,5.80
2022-10-18T20:51:22.870Z,4.70
2022-10-18T20:53:50.832Z,5.20
2022-10-18T20:56:20.441Z,5.40
2022-10-18T20:58:49.435Z,4.37
2022-10-18T21:01:24.666Z,5.47
2022-10-18T21:03:53.449Z,4.50
2022-10-18T21:06:23.836Z,5.87
2022-10-18T21:09:13.127Z,12.97
2022-10-18T21:11:42.613Z,20.40
2022-10-18T21:14:15.218Z,4.90
2022-10-18T21:16:43.689Z,4.73
2022-10-18T21:19:16.157Z,4.53
2022-10-18T21:21:46.067Z,5.47
2022-10-18T21:24:13.830Z,8.93
2022-10-18T21:26:40.762Z,5.40
2022-10-18T21:29:07.926Z,5.57
2022-10-18T21:31:37.113Z,5.70
2022-10-18T21:34:17.712Z,4.57
2022-10-18T21:36:46.486Z,5.27
2022-10-18T21:39:19.610Z,4.87
2022-10-18T21:41:47.376Z,4.53
2022-10-18T21:44:15.258Z,4.23
2022-10-18T21:46:46.812Z,4.33
2022-10-18T21:49:14.432Z,4.30
2022-10-18T21:51:42.161Z,4.03
2022-10-18T21:54:13.985Z,3.87
2022-10-18T21:56:41.224Z,4.07
2022-10-18T21:59:10.091Z,4.00
2022-10-18T22:01:38.463Z,4.10
2022-10-18T22:04:16.330Z,4.30
2022-10-18T22:06:43.187Z,4.37
2022-10-18T22:09:10.128Z,4.93
2022-10-18T22:11:41.191Z,4.47
2022-10-18T22:14:11.121Z,3.80
2022-10-18T22:16:38.303Z,4.00
2022-10-18T22:19:06.652Z,4.27
2022-10-18T22:21:34.124Z,4.57
2022-10-18T22:24:06.063Z,3.83
2022-10-18T22:26:35.665Z,4.50
2022-10-18T22:29:06.448Z,4.30
2022-10-18T22:31:36.204Z,4.10
2022-10-18T22:34:05.985Z,4.00
2022-10-18T22:36:34.267Z,5.40
2022-10-18T22:39:01.907Z,5.17
2022-10-18T22:41:29.035Z,5.67
2022-10-18T22:43:58.395Z,5.10
2022-10-18T22:46:28.300Z,5.50
2022-10-18T22:48:55.513Z,5.90
2022-10-18T22:51:22.537Z,9.07
2022-10-18T22:53:49.613Z,5.47
2022-10-18T22:56:19.220Z,5.93
2022-10-18T22:58:47.976Z,4.93
2022-10-18T23:01:18.346Z,4.63
2022-10-18T23:03:45.564Z,7.00
2022-10-18T23:06:26.308Z,5.83
2022-10-18T23:08:55.471Z,8.53
2022-10-18T23:11:23.084Z,8.30
2022-10-18T23:13:50.176Z,6.90
2022-10-18T23:16:17.674Z,7.33
2022-10-18T23:18:48.286Z,7.13
2022-10-18T23:21:15.522Z,6.13
2022-10-18T23:23:43.214Z,6.50
2022-10-18T23:26:15.929Z,6.17
2022-10-18T23:28:48.042Z,6.30
2022-10-18T23:31:18.162Z,6.70
2022-10-18T23:33:46.834Z,6.50
2022-10-18T23:36:18.939Z,5.90
2022-10-18T23:38:45.958Z,6.10
2022-10-18T23:41:14.378Z,5.70
2022-10-18T23:43:41.956Z,5.40
2022-10-18T23:46:09.533Z,6.87
2022-10-18T23:48:36.669Z,7.27
2022-10-18T23:51:04.613Z,7.40
2022-10-18T23:53:31.954Z,6.43
2022-10-18T23:56:13.751Z,6.03
2022-10-18T23:58:40.980Z,6.37
